Terminal Aerodrome Forecast
Issued by NWS Newport/Morehead City, NC

Current Version | Previous Version | Text Only | Print | Product List | Glossary Off
Versions: 1 2 3 4 5 6 7 8 9 10 11 12 13 14 15 16

262
FTUS42 KMHX 301755
TAFEWN
TAF
KEWN 301755Z 3018/0118 15008KT P6SM VCTS SCT030CB BKN050
      TEMPO 3018/3020 3SM -TSRA BKN025CB
     FM010300 17005KT P6SM VCSH BKN130
     FM010900 00000KT 3SM BR SCT025 BKN090
     FM011200 20006KT P6SM BKN090=

USA.gov is the U.S. government's official web portal to all federal, state and local government web resources and services.